createdAt,value
2018-12-08T00:00:41.190Z,100.00
2018-12-08T00:03:09.160Z,100.00
2018-12-08T00:05:37.091Z,100.00
2018-12-08T00:08:04.975Z,100.00
2018-12-08T00:10:33.395Z,100.00
2018-12-08T00:13:01.760Z,100.00
2018-12-08T00:15:30.136Z,100.00
2018-12-08T00:17:58.293Z,100.00
2018-12-08T00:20:26.235Z,100.00
2018-12-08T00:22:54.086Z,100.00
2018-12-08T00:25:22.101Z,100.00
2018-12-08T00:27:49.965Z,100.00
2018-12-08T00:30:29.787Z,100.00
2018-12-08T00:32:57.709Z,100.00
2018-12-08T00:35:25.566Z,100.00
2018-12-08T00:37:53.443Z,100.00
2018-12-08T00:40:21.339Z,100.00
2018-12-08T00:42:49.269Z,100.00
2018-12-08T00:45:17.159Z,100.00
2018-12-08T00:47:45.026Z,99.67
2018-12-08T00:50:12.911Z,99.86
2018-12-08T00:52:40.784Z,99.11
2018-12-08T00:55:08.632Z,99.65
2018-12-08T00:57:36.517Z,99.38
2018-12-08T01:00:06.265Z,98.89
2018-12-08T01:02:34.139Z,99.08
2018-12-08T01:05:02.013Z,99.00
2018-12-08T01:07:29.969Z,98.37
2018-12-08T01:09:57.832Z,98.78
2018-12-08T01:12:25.718Z,98.89
2018-12-08T01:14:53.611Z,98.48
2018-12-08T01:17:21.478Z,98.86
2018-12-08T01:19:49.343Z,99.32
2018-12-08T01:22:17.248Z,100.00
2018-12-08T01:24:45.556Z,99.87
2018-12-08T01:27:13.421Z,100.00
2018-12-08T01:29:41.291Z,100.00
2018-12-08T01:32:09.155Z,100.00
2018-12-08T01:34:37.021Z,100.00
2018-12-08T01:37:05.098Z,100.00
2018-12-08T01:39:32.987Z,100.00
2018-12-08T01:42:00.966Z,100.00
2018-12-08T01:44:29.015Z,100.00
2018-12-08T01:46:57.061Z,100.00
2018-12-08T01:49:25.034Z,100.00
2018-12-08T01:51:53.418Z,100.00
2018-12-08T01:54:21.723Z,100.00
2018-12-08T01:56:49.580Z,100.00
2018-12-08T01:59:17.913Z,100.00
2018-12-08T02:01:45.770Z,100.00
2018-12-08T02:04:13.644Z,100.00
2018-12-08T02:06:41.776Z,100.00
2018-12-08T02:09:09.651Z,100.00
2018-12-08T02:11:37.529Z,100.00
2018-12-08T02:14:05.555Z,100.00
2018-12-08T02:16:33.409Z,100.00
2018-12-08T02:19:01.278Z,99.54
2018-12-08T02:21:29.146Z,99.79
2018-12-08T02:23:56.997Z,99.55
2018-12-08T02:26:25.328Z,99.20
2018-12-08T02:28:53.366Z,99.14
2018-12-08T02:31:21.224Z,99.48
2018-12-08T02:33:49.096Z,99.44
2018-12-08T02:36:17.072Z,99.33
2018-12-08T02:38:44.935Z,98.99
2018-12-08T02:41:12.862Z,99.31
2018-12-08T02:43:40.900Z,99.33
2018-12-08T02:46:08.782Z,100.00
2018-12-08T02:48:37.116Z,99.20
2018-12-08T02:51:04.969Z,98.86
2018-12-08T02:53:33.280Z,98.65
2018-12-08T02:56:01.142Z,97.75
2018-12-08T02:58:29.001Z,98.11
2018-12-08T03:00:56.849Z,98.09
2018-12-08T03:03:24.707Z,98.20
2018-12-08T03:05:52.585Z,98.78
2018-12-08T03:08:20.886Z,98.18
2018-12-08T03:10:48.735Z,98.16
2018-12-08T03:13:16.606Z,98.89
2018-12-08T03:15:44.436Z,98.55
2018-12-08T03:18:12.296Z,98.72
2018-12-08T03:20:40.246Z,98.28
2018-12-08T03:23:08.106Z,97.15
2018-12-08T03:25:36.032Z,97.01
2018-12-08T03:28:03.904Z,96.82
2018-12-08T03:30:31.746Z,97.02
2018-12-08T03:32:59.662Z,97.54
2018-12-08T03:35:27.610Z,96.84
2018-12-08T03:37:55.449Z,96.32
2018-12-08T03:40:23.306Z,95.76
2018-12-08T03:42:51.274Z,96.21
2018-12-08T03:45:19.180Z,96.44
2018-12-08T03:47:47.026Z,96.69
2018-12-08T03:50:15.019Z,96.83
2018-12-08T03:52:42.860Z,96.78
2018-12-08T03:55:10.723Z,97.08
2018-12-08T03:57:38.580Z,97.01
2018-12-08T04:00:07.311Z,96.83
2018-12-08T04:02:35.166Z,95.92
2018-12-08T04:05:03.094Z,95.94
2018-12-08T04:07:31.042Z,96.41
2018-12-08T04:09:58.899Z,96.81
2018-12-08T04:12:26.849Z,96.48
2018-12-08T04:14:55.208Z,96.93
2018-12-08T04:17:23.193Z,97.29
2018-12-08T04:19:51.258Z,97.31
2018-12-08T04:22:19.551Z,97.31
2018-12-08T04:24:47.397Z,96.76
2018-12-08T04:27:15.531Z,96.55
2018-12-08T04:29:43.373Z,96.30
2018-12-08T04:32:11.730Z,95.40
2018-12-08T04:34:39.585Z,95.54
2018-12-08T04:37:07.454Z,94.54
2018-12-08T04:39:35.305Z,95.08
2018-12-08T04:42:03.173Z,95.10
2018-12-08T04:44:31.026Z,94.82
2018-12-08T04:46:58.932Z,94.96
2018-12-08T04:49:26.903Z,95.31
2018-12-08T04:51:54.755Z,95.56
2018-12-08T04:54:22.598Z,95.50
2018-12-08T04:56:50.476Z,95.52
2018-12-08T04:59:18.323Z,96.05
2018-12-08T05:01:46.185Z,95.98
2018-12-08T05:04:14.039Z,95.93
2018-12-08T05:06:41.952Z,96.03
2018-12-08T05:09:09.857Z,96.51
2018-12-08T05:11:37.730Z,96.36
2018-12-08T05:14:05.759Z,96.75
2018-12-08T05:16:33.614Z,96.27
2018-12-08T05:19:01.606Z,96.83
2018-12-08T05:21:29.461Z,96.29
2018-12-08T05:23:57.329Z,95.88
2018-12-08T05:26:25.694Z,95.79
2018-12-08T05:28:53.581Z,95.74
2018-12-08T05:31:21.438Z,95.02
2018-12-08T05:33:49.309Z,95.63
2018-12-08T05:36:17.176Z,95.32
2018-12-08T05:38:45.029Z,95.34
2018-12-08T05:41:12.969Z,95.33
2018-12-08T05:43:40.881Z,95.79
2018-12-08T05:46:08.805Z,96.05
2018-12-08T05:48:36.833Z,96.48
2018-12-08T05:51:04.685Z,96.10
2018-12-08T05:53:32.529Z,96.22
2018-12-08T05:56:00.398Z,96.24
2018-12-08T05:58:28.234Z,95.89
2018-12-08T06:00:56.085Z,96.02
2018-12-08T06:03:24.137Z,95.85
2018-12-08T06:05:51.982Z,95.93
2018-12-08T06:08:19.864Z,95.87
2018-12-08T06:10:47.734Z,95.99
2018-12-08T06:13:15.686Z,95.69
2018-12-08T06:15:43.523Z,95.98
2018-12-08T06:18:12.132Z,95.45
2018-12-08T06:20:40.109Z,94.96
2018-12-08T06:23:07.939Z,94.26
2018-12-08T06:25:36.064Z,94.92
2018-12-08T06:28:07.014Z,94.18
2018-12-08T06:30:35.700Z,94.14
2018-12-08T06:33:03.660Z,94.51
2018-12-08T06:35:31.502Z,94.61
2018-12-08T06:37:59.350Z,94.89
2018-12-08T06:40:29.360Z,95.49
2018-12-08T06:42:57.550Z,95.02
2018-12-08T06:45:25.534Z,95.58
2018-12-08T06:47:53.474Z,96.30
2018-12-08T06:50:21.374Z,95.84
2018-12-08T06:52:49.233Z,96.43
2018-12-08T06:55:17.206Z,96.28
2018-12-08T06:57:45.099Z,95.84
2018-12-08T07:00:13.100Z,95.89
2018-12-08T07:02:41.114Z,95.67
2018-12-08T07:05:09.013Z,96.21
2018-12-08T07:07:36.888Z,96.06
2018-12-08T07:10:05.377Z,95.85
2018-12-08T07:12:33.807Z,95.81
2018-12-08T07:15:01.689Z,95.24
2018-12-08T07:17:29.769Z,95.25
2018-12-08T07:19:57.722Z,94.95
2018-12-08T07:22:25.546Z,94.54
2018-12-08T07:24:53.624Z,94.48
2018-12-08T07:27:21.965Z,94.91
2018-12-08T07:29:49.904Z,95.10
2018-12-08T07:32:17.993Z,95.14
2018-12-08T07:34:45.857Z,94.80
2018-12-08T07:37:14.224Z,94.55
2018-12-08T07:39:42.107Z,93.93
2018-12-08T07:42:09.954Z,93.59
2018-12-08T07:44:37.821Z,93.09
2018-12-08T07:47:05.670Z,92.50
2018-12-08T07:49:33.529Z,92.24
2018-12-08T07:52:01.381Z,91.72
2018-12-08T07:54:29.420Z,91.19
2018-12-08T07:56:57.382Z,91.74
2018-12-08T07:59:25.357Z,91.10
2018-12-08T08:01:53.526Z,90.83
2018-12-08T08:04:21.384Z,91.60
2018-12-08T08:06:49.466Z,91.16
2018-12-08T08:09:17.340Z,91.09
2018-12-08T08:11:45.393Z,91.28
2018-12-08T08:14:13.245Z,90.41
2018-12-08T08:16:41.831Z,90.06
2018-12-08T08:19:10.119Z,89.02
2018-12-08T08:21:38.081Z,88.36
2018-12-08T08:24:05.953Z,87.64
2018-12-08T08:26:33.817Z,87.01
2018-12-08T08:29:01.696Z,86.63
2018-12-08T08:31:29.559Z,87.20
2018-12-08T08:33:57.466Z,87.00
2018-12-08T08:36:25.408Z,87.40
2018-12-08T08:38:53.473Z,87.08
2018-12-08T08:41:21.341Z,86.99
2018-12-08T08:43:49.631Z,87.31
2018-12-08T08:46:18.174Z,86.99
2018-12-08T08:48:46.580Z,87.32
2018-12-08T08:51:14.875Z,87.52
2018-12-08T08:53:43.224Z,87.06
2018-12-08T08:56:11.596Z,87.11
2018-12-08T08:58:39.913Z,86.70
2018-12-08T09:01:08.212Z,86.06
2018-12-08T09:03:36.505Z,84.73
2018-12-08T09:06:04.906Z,84.32
2018-12-08T09:08:33.386Z,84.45
2018-12-08T09:11:01.683Z,84.56
2018-12-08T09:13:29.982Z,84.84
2018-12-08T09:15:58.274Z,84.34
2018-12-08T09:18:26.690Z,84.53
2018-12-08T09:20:55.125Z,83.94
2018-12-08T09:23:23.429Z,83.86
2018-12-08T09:25:51.812Z,83.39
2018-12-08T09:28:20.117Z,83.41
2018-12-08T09:30:48.488Z,83.50
2018-12-08T09:33:16.870Z,83.18
2018-12-08T09:35:45.205Z,83.09
2018-12-08T09:38:13.525Z,83.06
2018-12-08T09:40:41.903Z,82.89
2018-12-08T09:43:10.309Z,82.40
2018-12-08T09:45:42.015Z,82.13
2018-12-08T09:48:08.982Z,81.97
2018-12-08T09:50:37.327Z,82.33
2018-12-08T09:53:16.092Z,81.74
2018-12-08T09:55:44.464Z,82.42
2018-12-08T09:58:12.861Z,82.85
2018-12-08T10:00:41.205Z,82.28
2018-12-08T10:03:09.526Z,81.08
2018-12-08T10:05:37.881Z,80.58
2018-12-08T10:08:06.240Z,80.29
2018-12-08T10:10:34.598Z,80.43
2018-12-08T10:13:02.966Z,80.22
2018-12-08T10:15:31.256Z,80.91
2018-12-08T10:17:59.545Z,80.33
2018-12-08T10:20:27.853Z,80.46
2018-12-08T10:22:56.302Z,80.27
2018-12-08T10:25:24.611Z,80.17
2018-12-08T10:27:52.927Z,80.53
2018-12-08T10:30:21.306Z,80.21
2018-12-08T10:32:49.714Z,79.60
2018-12-08T10:35:17.994Z,80.22
2018-12-08T10:37:46.347Z,80.25
2018-12-08T10:40:14.845Z,79.86
2018-12-08T10:42:43.202Z,79.91
2018-12-08T10:45:11.482Z,79.80
2018-12-08T10:47:39.834Z,79.64
2018-12-08T10:50:08.401Z,79.69
2018-12-08T10:52:36.749Z,79.16
2018-12-08T10:55:05.463Z,79.12
2018-12-08T10:57:33.751Z,79.39
2018-12-08T11:00:02.078Z,79.86
2018-12-08T11:05:21.102Z,80.71
2018-12-08T11:07:49.399Z,80.50
2018-12-08T11:10:17.702Z,80.37
2018-12-08T11:12:46.023Z,80.90
2018-12-08T11:15:14.405Z,80.17
2018-12-08T11:17:42.701Z,80.62
2018-12-08T11:20:11.163Z,80.51
2018-12-08T11:22:39.457Z,80.19
2018-12-08T11:25:07.829Z,80.29
2018-12-08T11:27:36.124Z,80.35
2018-12-08T11:30:05.307Z,80.41
2018-12-08T11:32:33.703Z,80.51
2018-12-08T11:35:02.063Z,79.89
2018-12-08T11:37:30.363Z,79.81
2018-12-08T11:39:58.653Z,79.60
2018-12-08T11:42:26.973Z,79.43
2018-12-08T11:44:55.334Z,79.58
2018-12-08T11:47:23.743Z,79.57
2018-12-08T11:49:52.114Z,79.64
2018-12-08T11:54:55.120Z,79.63
2018-12-08T11:57:23.407Z,79.20
2018-12-08T11:59:51.773Z,78.79
2018-12-08T12:02:20.070Z,78.49
2018-12-08T12:04:48.435Z,79.06
2018-12-08T12:07:16.805Z,78.81
2018-12-08T12:09:45.194Z,78.71
2018-12-08T12:12:13.542Z,78.61
2018-12-08T12:14:45.266Z,78.69
2018-12-08T12:17:13.670Z,78.75
2018-12-08T12:19:41.995Z,78.97
2018-12-08T12:22:10.292Z,77.96
2018-12-08T12:24:38.648Z,78.13
2018-12-08T12:27:06.955Z,77.67
2018-12-08T12:29:35.357Z,78.25
2018-12-08T12:32:03.631Z,78.22
2018-12-08T12:34:31.538Z,77.92
2018-12-08T12:36:59.403Z,77.72
2018-12-08T12:39:27.793Z,78.26
2018-12-08T12:41:55.672Z,77.79
2018-12-08T12:44:23.540Z,77.83
2018-12-08T12:46:51.454Z,77.47
2018-12-08T12:49:19.486Z,77.43
2018-12-08T12:51:47.429Z,77.26
2018-12-08T12:54:15.417Z,77.52
2018-12-08T12:56:43.326Z,77.03
2018-12-08T12:59:11.366Z,76.70
2018-12-08T13:01:39.818Z,76.79
2018-12-08T13:04:07.729Z,77.17
2018-12-08T13:06:35.566Z,77.15
2018-12-08T13:09:05.333Z,77.36
2018-12-08T13:11:33.285Z,77.39
2018-12-08T13:14:01.244Z,77.34
2018-12-08T13:16:29.097Z,77.31
2018-12-08T13:18:56.967Z,77.34
2018-12-08T13:21:24.926Z,77.69
2018-12-08T13:23:53.250Z,77.39
2018-12-08T13:26:21.170Z,77.65
2018-12-08T13:28:49.141Z,77.68
2018-12-08T13:31:16.991Z,77.19
2018-12-08T13:33:44.862Z,77.08
2018-12-08T13:36:12.794Z,76.76
2018-12-08T13:38:40.648Z,76.75
2018-12-08T13:41:08.503Z,76.76
2018-12-08T13:43:36.465Z,77.36
2018-12-08T13:46:04.357Z,77.88
2018-12-08T13:48:32.702Z,78.47
2018-12-08T13:51:00.705Z,78.34
2018-12-08T13:53:36.538Z,78.20
2018-12-08T13:55:58.426Z,78.88
2018-12-08T13:58:26.357Z,80.07
2018-12-08T14:00:54.226Z,81.24
2018-12-08T14:03:22.143Z,82.49
2018-12-08T14:05:50.144Z,82.52
2018-12-08T14:08:18.004Z,83.08
2018-12-08T14:10:45.955Z,84.54
2018-12-08T14:13:13.824Z,84.27
2018-12-08T14:15:41.681Z,84.80
2018-12-08T14:18:09.527Z,85.97
2018-12-08T14:20:37.397Z,85.95
2018-12-08T14:23:05.270Z,86.74
2018-12-08T14:25:33.126Z,87.45
2018-12-08T14:28:00.977Z,86.85
2018-12-08T14:30:28.841Z,88.25
2018-12-08T14:32:56.733Z,88.54
2018-12-08T14:35:24.606Z,88.81
2018-12-08T14:37:52.620Z,89.45
2018-12-08T14:40:20.472Z,89.64
2018-12-08T14:42:48.421Z,89.67
2018-12-08T14:45:16.479Z,90.19
2018-12-08T14:47:44.845Z,90.63
2018-12-08T14:50:12.714Z,90.88
2018-12-08T14:52:40.641Z,90.73
2018-12-08T14:55:08.600Z,91.22
2018-12-08T14:57:36.549Z,91.27
2018-12-08T15:00:06.680Z,91.06
2018-12-08T15:02:34.530Z,91.37
2018-12-08T15:05:02.507Z,91.28
2018-12-08T15:07:30.384Z,91.82
2018-12-08T15:09:58.239Z,91.12
2018-12-08T15:12:26.095Z,91.80
2018-12-08T15:14:53.940Z,91.51
2018-12-08T15:17:21.805Z,91.26
2018-12-08T15:19:49.661Z,91.22
2018-12-08T15:22:17.577Z,91.16
2018-12-08T15:24:45.953Z,91.57
2018-12-08T15:27:13.925Z,91.46
2018-12-08T15:29:41.785Z,91.66
2018-12-08T15:32:09.766Z,92.22
2018-12-08T15:34:37.733Z,91.82
2018-12-08T15:37:05.594Z,92.73
2018-12-08T15:39:33.433Z,92.55
2018-12-08T15:42:01.745Z,92.79
2018-12-08T15:44:29.711Z,92.83
2018-12-08T15:46:57.550Z,92.91
2018-12-08T15:49:25.854Z,93.01
2018-12-08T15:51:55.725Z,93.31
2018-12-08T15:54:23.731Z,92.92
2018-12-08T15:56:51.596Z,93.12
2018-12-08T15:59:19.894Z,93.20
2018-12-08T16:01:47.956Z,92.64
2018-12-08T16:04:15.793Z,92.71
2018-12-08T16:06:43.647Z,92.75
2018-12-08T16:09:11.574Z,92.73
2018-12-08T16:11:39.599Z,92.84
2018-12-08T16:14:07.453Z,92.35
2018-12-08T16:16:35.468Z,91.72
2018-12-08T16:19:03.431Z,91.61
2018-12-08T16:21:31.298Z,91.21
2018-12-08T16:23:59.146Z,91.03
2018-12-08T16:26:27.111Z,91.49
2018-12-08T16:28:54.961Z,90.80
2018-12-08T16:31:22.883Z,90.35
2018-12-08T16:33:50.933Z,90.38
2018-12-08T16:36:18.829Z,90.28
2018-12-08T16:38:46.701Z,89.83
2018-12-08T16:41:14.600Z,89.34
2018-12-08T16:43:42.441Z,89.60
2018-12-08T16:46:10.482Z,89.10
2018-12-08T16:48:38.828Z,89.51
2018-12-08T16:51:06.829Z,89.34
2018-12-08T16:53:34.745Z,88.99
2018-12-08T16:56:02.641Z,88.43
2018-12-08T16:58:30.500Z,88.64
2018-12-08T17:00:58.614Z,88.56
2018-12-08T17:03:26.568Z,88.80
2018-12-08T17:05:54.444Z,88.14
2018-12-08T17:08:22.755Z,88.33
2018-12-08T17:10:50.609Z,88.04
2018-12-08T17:13:18.465Z,87.89
2018-12-08T17:15:46.312Z,87.69
2018-12-08T17:18:14.174Z,87.57
2018-12-08T17:20:42.028Z,87.16
2018-12-08T17:23:09.957Z,87.02
2018-12-08T17:25:37.818Z,87.39
2018-12-08T17:28:05.731Z,86.58
2018-12-08T17:30:33.595Z,87.04
2018-12-08T17:33:01.445Z,87.18
2018-12-08T17:35:29.324Z,86.27
2018-12-08T17:37:57.183Z,86.01
2018-12-08T17:40:25.676Z,86.36
2018-12-08T17:42:53.529Z,86.11
2018-12-08T17:45:21.401Z,86.15
2018-12-08T17:47:49.326Z,85.85
2018-12-08T17:50:17.214Z,86.09
2018-12-08T17:52:45.136Z,85.33
2018-12-08T17:55:12.993Z,85.46
2018-12-08T17:57:40.854Z,85.04
2018-12-08T18:00:08.758Z,85.63
2018-12-08T18:02:37.051Z,85.44
2018-12-08T18:05:05.210Z,84.54
2018-12-08T18:07:35.045Z,84.55
2018-12-08T18:10:04.288Z,84.31
2018-12-08T18:12:32.606Z,84.71
2018-12-08T18:15:00.442Z,84.34
2018-12-08T18:17:28.598Z,84.85
2018-12-08T18:19:56.574Z,84.37
2018-12-08T18:22:24.621Z,84.27
2018-12-08T18:24:54.111Z,84.38
2018-12-08T18:27:21.968Z,84.06
2018-12-08T18:29:50.008Z,84.19
2018-12-08T18:32:17.858Z,84.02
2018-12-08T18:34:45.706Z,84.11
2018-12-08T18:37:13.568Z,84.72
2018-12-08T18:39:41.879Z,84.14
2018-12-08T18:42:09.741Z,84.57
2018-12-08T18:44:37.654Z,84.66
2018-12-08T18:47:05.496Z,84.58
2018-12-08T18:49:33.805Z,85.05
2018-12-08T18:52:01.654Z,84.86
2018-12-08T18:54:29.512Z,84.73
2018-12-08T18:56:57.374Z,85.07
2018-12-08T18:59:25.237Z,85.11
2018-12-08T19:01:53.164Z,84.96
2018-12-08T19:04:21.015Z,85.05
2018-12-08T19:06:48.881Z,84.79
2018-12-08T19:09:16.730Z,84.91
2018-12-08T19:11:44.579Z,84.32
2018-12-08T19:14:12.447Z,85.18
2018-12-08T19:16:40.289Z,85.48
2018-12-08T19:19:08.141Z,86.02
2018-12-08T19:21:35.989Z,86.17
2018-12-08T19:24:03.898Z,86.03
2018-12-08T19:26:31.742Z,86.38
2018-12-08T19:29:00.047Z,86.42
2018-12-08T19:31:27.888Z,87.05
2018-12-08T19:33:56.214Z,87.32
2018-12-08T19:36:24.065Z,87.24
2018-12-08T19:38:51.921Z,87.35
2018-12-08T19:41:19.869Z,87.78
2018-12-08T19:43:47.738Z,87.51
2018-12-08T19:46:15.589Z,87.87
2018-12-08T19:48:43.452Z,88.00
2018-12-08T19:51:11.493Z,88.12
2018-12-08T19:53:39.368Z,88.28
2018-12-08T19:56:07.212Z,88.37
2018-12-08T19:58:35.104Z,89.00
2018-12-08T20:01:02.953Z,88.72
2018-12-08T20:03:30.826Z,89.48
2018-12-08T20:05:58.673Z,88.79
2018-12-08T20:08:26.578Z,89.09
2018-12-08T20:10:54.481Z,89.77
2018-12-08T20:13:22.364Z,89.13
2018-12-08T20:15:50.225Z,89.25
2018-12-08T20:18:18.096Z,89.21
2018-12-08T20:20:46.041Z,89.73
2018-12-08T20:23:13.863Z,89.16
2018-12-08T20:25:41.730Z,89.72
2018-12-08T20:28:09.578Z,89.72
2018-12-08T20:30:37.436Z,90.40
2018-12-08T20:33:05.897Z,90.88
2018-12-08T20:35:34.402Z,90.40
2018-12-08T20:38:02.252Z,91.35
2018-12-08T20:40:30.560Z,91.10
2018-12-08T20:42:58.397Z,91.03
2018-12-08T20:45:26.280Z,91.43
2018-12-08T20:47:54.137Z,91.60
2018-12-08T20:50:21.993Z,92.06
2018-12-08T20:52:49.869Z,92.08
2018-12-08T20:55:17.716Z,92.45
2018-12-08T20:57:45.604Z,91.94
2018-12-08T21:00:13.465Z,92.50
2018-12-08T21:02:41.335Z,93.08
2018-12-08T21:05:09.207Z,92.81
2018-12-08T21:07:37.046Z,92.76
2018-12-08T21:10:06.821Z,93.48
2018-12-08T21:12:34.762Z,93.47
2018-12-08T21:15:02.714Z,93.77
2018-12-08T21:17:30.578Z,94.11
2018-12-08T21:19:58.661Z,94.11
2018-12-08T21:22:26.505Z,94.23
2018-12-08T21:24:54.370Z,94.49
2018-12-08T21:27:22.242Z,94.40
2018-12-08T21:29:50.325Z,94.71
2018-12-08T21:32:18.626Z,94.35
2018-12-08T21:34:46.675Z,95.01
2018-12-08T21:37:14.523Z,94.51
2018-12-08T21:39:42.416Z,95.39
2018-12-08T21:42:10.490Z,95.28
2018-12-08T21:44:38.363Z,95.11
2018-12-08T21:47:06.202Z,94.88
2018-12-08T21:49:34.519Z,94.74
2018-12-08T21:52:02.369Z,94.96
2018-12-08T21:54:30.429Z,95.41
2018-12-08T21:56:58.307Z,94.71
2018-12-08T21:59:26.665Z,95.10
2018-12-08T22:01:54.782Z,94.76
2018-12-08T22:04:22.664Z,95.08
2018-12-08T22:06:50.519Z,94.60
2018-12-08T22:09:18.415Z,94.69
2018-12-08T22:11:46.475Z,95.44
2018-12-08T22:14:14.336Z,94.88
2018-12-08T22:16:42.792Z,95.02
2018-12-08T22:19:10.956Z,95.36
2018-12-08T22:21:38.809Z,94.95
2018-12-08T22:24:06.674Z,95.34
2018-12-08T22:26:34.537Z,95.20
2018-12-08T22:29:02.386Z,95.05
2018-12-08T22:31:30.231Z,94.53
2018-12-08T22:33:58.114Z,94.23
2018-12-08T22:36:26.439Z,94.20
2018-12-08T22:38:54.298Z,94.42
2018-12-08T22:41:22.254Z,93.94
2018-12-08T22:43:50.102Z,93.99
2018-12-08T22:46:17.996Z,93.42
2018-12-08T22:48:45.959Z,92.91
2018-12-08T22:51:13.814Z,92.55
2018-12-08T22:53:42.188Z,92.26
2018-12-08T22:56:10.135Z,92.19
2018-12-08T22:58:38.437Z,91.72
2018-12-08T23:01:06.344Z,91.18
2018-12-08T23:03:34.265Z,91.86
2018-12-08T23:06:02.118Z,91.51
2018-12-08T23:08:29.965Z,91.76
2018-12-08T23:10:57.985Z,91.39
2018-12-08T23:13:25.843Z,91.79
2018-12-08T23:15:53.680Z,91.75
2018-12-08T23:18:21.577Z,92.09
2018-12-08T23:20:49.430Z,92.24
2018-12-08T23:23:17.402Z,92.64
2018-12-08T23:25:45.497Z,92.55
2018-12-08T23:28:13.412Z,93.06
2018-12-08T23:30:41.273Z,93.46
2018-12-08T23:33:09.325Z,93.79
2018-12-08T23:35:37.226Z,94.22
2018-12-08T23:38:05.084Z,94.08
2018-12-08T23:40:32.954Z,95.25
2018-12-08T23:43:00.792Z,94.71
2018-12-08T23:45:28.637Z,95.57
2018-12-08T23:47:56.605Z,95.54
2018-12-08T23:50:24.453Z,96.16
2018-12-08T23:52:52.293Z,96.06
2018-12-08T23:55:20.160Z,96.14
2018-12-08T23:57:48.037Z,96.61
